Time;durP1;ratioP1;P1;durP2;ratioP2;P2;SDS_P1;SDS_P2;PMS_P1;PMS_P2;Temp;Humidity;BMP_temperature;BMP_pressure;BME280_temperature;BME280_humidity;BME280_pressure;Samples;Min_cycle;Max_cycle;Signal;HPM_P1;HPM_P2
2021/03/22 00:00:49;;;;;;;22.20;4.43;;;;;;;4.74;67.70;100999.63;5031517;28;20422;-81
2021/03/22 00:03:15;;;;;;;;;;;;;;;4.76;67.11;101001.19;5031655;28;20033;-82
2021/03/22 00:05:41;;;;;;;21.75;4.00;;;;;;;4.84;66.37;100998.91;5029815;28;19917;-80
2021/03/22 00:08:07;;;;;;;20.83;4.20;;;;;;;4.88;66.05;100994.28;5030489;28;20045;-81
2021/03/22 00:10:34;;;;;;;14.57;3.38;;;;;;;4.78;66.57;100994.06;5026522;28;20109;-80
2021/03/22 00:12:59;;;;;;;18.23;3.90;;;;;;;4.84;65.90;100998.91;5029512;28;20129;-82
2021/03/22 00:15:29;;;;;;;21.40;5.13;;;;;;;4.83;66.21;101001.63;5031073;28;20112;-80
2021/03/22 00:17:54;;;;;;;17.70;3.80;;;;;;;4.83;66.07;100999.00;5020152;28;20120;-81
2021/03/22 00:20:20;;;;;;;18.40;4.22;;;;;;;4.76;66.56;100997.75;5029777;28;20036;-80
2021/03/22 00:22:46;;;;;;;15.95;3.80;;;;;;;4.78;66.06;100994.06;5022288;28;20033;-82
2021/03/22 00:25:12;;;;;;;17.23;3.38;;;;;;;4.83;65.85;100988.53;5029166;28;20645;-80
2021/03/22 00:27:38;;;;;;;17.10;3.58;;;;;;;4.86;65.73;100990.94;5027358;28;20220;-81
2021/03/22 00:30:07;;;;;;;20.92;4.60;;;;;;;4.84;66.01;100988.44;5025788;28;20034;-80
2021/03/22 00:32:32;;;;;;;15.88;3.67;;;;;;;4.71;66.85;100989.34;5028642;28;20056;-81
2021/03/22 00:34:57;;;;;;;17.23;3.78;;;;;;;4.73;66.72;100993.53;5028404;28;20072;-81
2021/03/22 00:37:23;;;;;;;20.65;3.80;;;;;;;4.74;66.82;100992.59;5027493;28;20044;-80
2021/03/22 00:39:48;;;;;;;12.60;3.08;;;;;;;4.72;67.03;100991.88;5019152;28;20034;-82
2021/03/22 00:42:13;;;;;;;20.98;4.22;;;;;;;4.72;67.30;100991.88;5026572;28;20037;-80
2021/03/22 00:44:39;;;;;;;19.15;4.10;;;;;;;4.67;67.20;100993.94;5021604;28;20117;-81
2021/03/22 00:47:04;;;;;;;15.50;3.38;;;;;;;4.62;68.39;100983.81;5026945;28;20047;-80
2021/03/22 00:49:29;;;;;;;15.27;3.78;;;;;;;4.62;67.93;100989.03;5029568;28;20229;-82
2021/03/22 00:51:55;;;;;;;15.95;2.92;;;;;;;4.61;68.04;100989.13;5030883;28;20072;-81
2021/03/22 00:54:20;;;;;;;9.05;2.58;;;;;;;4.62;68.24;100986.41;5027575;28;20053;-81
2021/03/22 00:56:45;;;;;;;17.40;3.70;;;;;;;4.53;68.37;100986.16;5028467;28;20037;-81
2021/03/22 00:59:11;;;;;;;13.65;3.47;;;;;;;4.56;68.51;100975.50;5027611;28;20068;-80
2021/03/22 01:01:36;;;;;;;12.30;3.28;;;;;;;4.51;68.13;100983.66;5029860;28;20450;-80
2021/03/22 01:04:02;;;;;;;13.60;3.35;;;;;;;4.51;68.99;100978.44;5025534;28;20045;-82
2021/03/22 01:06:28;;;;;;;14.00;3.92;;;;;;;4.51;68.94;100973.19;5026452;28;20112;-81
2021/03/22 01:08:53;;;;;;;21.00;4.00;;;;;;;4.51;68.18;100974.97;5017023;28;20539;-82
2021/03/22 01:11:21;;;;;;;17.70;3.95;;;;;;;4.42;68.85;100976.41;5023507;28;20120;-80
2021/03/22 01:13:52;;;;;;;18.38;3.95;;;;;;;4.42;68.95;100974.63;5025619;28;20037;-81
2021/03/22 01:16:21;;;;;;;11.60;3.40;;;;;;;4.39;69.03;100974.84;5022411;28;20041;-81
2021/03/22 01:18:50;;;;;;;14.68;3.63;;;;;;;4.44;68.39;100972.75;5027738;28;20037;-80
2021/03/22 01:21:44;;;;;;;13.80;3.45;;;;;;;4.39;69.56;100968.78;5029289;28;20033;-81
2021/03/22 01:24:11;;;;;;;15.93;3.75;;;;;;;4.40;69.42;100973.06;5015971;28;20068;-80
2021/03/22 01:26:38;;;;;;;16.77;3.15;;;;;;;4.46;68.36;100968.25;5027738;28;20029;-80
2021/03/22 01:29:19;;;;;;;18.73;4.50;;;;;;;4.54;68.03;100972.97;5029828;28;20116;-81
2021/03/22 01:31:45;;;;;;;15.65;2.97;;;;;;;4.50;68.45;100962.81;5027362;28;20097;-81
2021/03/22 01:34:11;;;;;;;14.15;3.55;;;;;;;4.52;68.21;100968.78;5030099;28;20099;-80
2021/03/22 01:36:36;;;;;;;12.30;3.05;;;;;;;4.49;68.85;100959.34;5030778;28;20033;-80
2021/03/22 01:39:15;;;;;;;12.35;3.22;;;;;;;4.48;68.75;100962.91;5030394;28;20521;-81
2021/03/22 01:42:03;;;;;;;10.32;2.40;;;;;;;4.48;69.31;100957.66;5028815;28;20037;-81
2021/03/22 01:44:44;;;;;;;12.55;3.05;;;;;;;4.43;69.30;100958.00;5022353;28;20049;-81
2021/03/22 01:47:14;;;;;;;19.55;3.85;;;;;;;4.38;69.62;100960.06;5016633;28;20038;-81
2021/03/22 01:49:48;;;;;;;15.73;3.33;;;;;;;4.38;69.50;100957.44;5007847;28;20436;-81
2021/03/22 01:52:14;;;;;;;10.57;3.13;;;;;;;4.39;69.24;100951.28;5026803;28;20033;-80
2021/03/22 01:54:40;;;;;;;16.55;3.40;;;;;;;4.40;69.72;100957.34;5027273;28;20064;-82
2021/03/22 01:57:22;;;;;;;12.95;2.72;;;;;;;4.44;69.76;100949.19;5027503;28;20040;-82
2021/03/22 01:59:48;;;;;;;13.65;3.40;;;;;;;4.39;69.80;100950.44;5036374;28;20445;-81
2021/03/22 02:02:13;;;;;;;21.58;4.13;;;;;;;4.44;68.81;100949.19;5024997;28;20042;-82
2021/03/22 02:04:39;;;;;;;17.02;3.20;;;;;;;4.47;68.65;100945.53;5033055;28;20025;-82
2021/03/22 02:07:04;;;;;;;15.38;3.40;;;;;;;4.54;68.39;100948.56;5030265;28;20359;-82
2021/03/22 02:09:30;;;;;;;13.77;3.33;;;;;;;4.54;68.66;100949.41;5033737;28;20080;-82
2021/03/22 02:11:55;;;;;;;16.70;3.53;;;;;;;4.49;69.05;100954.13;5031481;28;20033;-80
2021/03/22 02:14:21;;;;;;;10.80;2.90;;;;;;;4.56;68.63;100959.78;5034547;28;20029;-82
2021/03/22 02:16:52;;;;;;;12.95;3.45;;;;;;;4.51;68.79;100962.72;5035885;28;20517;-82
2021/03/22 02:19:36;;;;;;;;;;;;;;;4.45;69.86;100963.09;5035590;28;20060;-81
2021/03/22 02:22:31;;;;;;;15.52;3.35;;;;;;;4.36;70.11;100956.72;5028108;28;19940;-81
2021/03/22 02:25:17;;;;;;;16.55;3.20;;;;;;;4.32;70.40;100952.63;5030724;28;20107;-83
2021/03/22 02:27:51;;;;;;;11.95;3.45;;;;;;;4.30;70.42;100959.72;5033431;28;20033;-80
2021/03/22 02:30:42;;;;;;;13.05;3.97;;;;;;;4.35;69.67;100960.25;5027338;28;20038;-82
2021/03/22 02:33:42;;;;;;;16.50;3.80;;;;;;;4.32;69.56;100957.84;5033120;28;20514;-82
2021/03/22 02:36:33;;;;;;;14.20;3.23;;;;;;;4.25;70.40;100962.66;5031740;28;20531;-81
2021/03/22 02:39:00;;;;;;;17.10;3.80;;;;;;;4.27;70.31;100959.94;5027433;28;20075;-83
2021/03/22 02:41:38;;;;;;;12.05;2.58;;;;;;;4.31;69.48;100958.78;5034396;28;20025;-82
2021/03/22 02:44:08;;;;;;;14.77;2.75;;;;;;;4.30;69.60;100964.13;5024872;28;20026;-82
2021/03/22 02:46:35;;;;;;;10.15;2.05;;;;;;;4.35;69.69;100960.25;5030977;28;20025;-82
2021/03/22 02:49:05;;;;;;;7.30;1.90;;;;;;;4.36;69.43;100961.09;5032441;28;20040;-81
2021/03/22 02:52:06;;;;;;;11.30;3.43;;;;;;;4.35;69.28;100959.44;5033626;28;20042;-81
2021/03/22 02:54:55;;;;;;;7.40;2.10;;;;;;;4.34;69.19;100962.97;5030592;28;20071;-82
2021/03/22 02:57:44;;;;;;;16.55;3.40;;;;;;;4.27;68.80;100965.19;5034309;28;20040;-81
2021/03/22 03:00:19;;;;;;;13.05;3.00;;;;;;;4.27;68.25;100959.94;5020590;28;20056;-82
2021/03/22 03:02:47;;;;;;;9.45;2.83;;;;;;;4.23;68.95;100961.91;5032195;28;21235;-81
2021/03/22 03:05:15;;;;;;;13.23;3.10;;;;;;;4.21;68.88;100966.41;5034213;28;20719;-81
2021/03/22 03:07:41;;;;;;;16.20;3.20;;;;;;;4.24;68.99;100962.72;5032378;28;20033;-82
2021/03/22 03:10:09;;;;;;;12.27;3.58;;;;;;;4.28;68.76;100966.00;5033518;28;20036;-81
2021/03/22 03:12:34;;;;;;;19.55;3.97;;;;;;;4.31;68.00;100969.25;5031169;28;20414;-81
2021/03/22 03:15:00;;;;;;;15.18;3.17;;;;;;;4.26;67.86;100971.34;5027523;28;20045;-83
2021/03/22 03:17:25;;;;;;;13.23;3.40;;;;;;;4.15;68.61;100969.44;5034154;28;20030;-81
2021/03/22 03:19:53;;;;;;;18.17;3.08;;;;;;;4.24;67.78;100981.06;5025901;28;20048;-83
2021/03/22 03:22:20;;;;;;;12.45;2.72;;;;;;;4.22;68.12;100973.31;5032328;28;20069;-82
2021/03/22 03:24:45;;;;;;;14.93;3.63;;;;;;;4.12;68.40;100972.22;5031947;28;20115;-82
2021/03/22 03:27:12;;;;;;;18.95;3.83;;;;;;;4.11;68.72;100972.34;5026772;28;20065;-82
2021/03/22 03:29:38;;;;;;;12.07;2.80;;;;;;;4.11;68.88;100970.56;5033152;28;20042;-81
2021/03/22 03:32:05;;;;;;;15.52;2.65;;;;;;;4.12;68.46;100974.00;5031836;28;20120;-81
2021/03/22 03:34:30;;;;;;;15.40;2.67;;;;;;;4.08;68.36;100973.38;5032532;28;20453;-82
2021/03/22 03:36:55;;;;;;;15.52;3.33;;;;;;;4.10;68.55;100976.75;5033582;28;20060;-82
2021/03/22 03:39:21;;;;;;;17.27;3.30;;;;;;;4.06;68.62;100975.25;5032395;28;20030;-82
2021/03/22 03:41:46;;;;;;;13.00;2.83;;;;;;;3.99;69.13;100981.81;5032712;28;20025;-83
2021/03/22 03:44:12;;;;;;;13.80;2.92;;;;;;;4.02;69.16;100987.69;5032451;28;20037;-82
2021/03/22 03:46:38;;;;;;;15.00;2.92;;;;;;;4.03;69.40;100986.75;5041252;28;20128;-83
2021/03/22 03:49:04;;;;;;;15.05;3.55;;;;;;;4.05;69.03;100981.41;5026879;28;20037;-82
2021/03/22 03:51:35;;;;;;;12.98;3.10;;;;;;;4.06;68.61;100979.66;5039495;28;20427;-83
2021/03/22 03:54:01;;;;;;;9.52;2.92;;;;;;;4.06;69.14;100980.50;5028898;28;20714;-83
2021/03/22 03:56:27;;;;;;;13.90;3.10;;;;;;;4.13;68.01;100978.31;5036565;28;20033;-82
2021/03/22 03:58:56;;;;;;;15.50;3.10;;;;;;;4.20;67.65;100976.97;5034295;28;20034;-82
2021/03/22 04:01:22;;;;;;;16.65;4.05;;;;;;;4.19;67.37;100973.50;5034792;28;20044;-83
2021/03/22 04:03:48;;;;;;;15.45;3.20;;;;;;;4.08;68.14;100975.16;5034950;28;20569;-83
2021/03/22 04:06:17;;;;;;;10.82;3.05;;;;;;;4.13;67.68;100978.31;5031791;28;20049;-82
2021/03/22 04:08:48;;;;;;;16.80;3.42;;;;;;;4.11;67.35;100975.78;5033170;28;20506;-82
2021/03/22 04:11:16;;;;;;;18.48;3.30;;;;;;;4.19;66.96;100989.22;5026455;28;20048;-82
2021/03/22 04:13:42;;;;;;;13.88;2.70;;;;;;;4.16;67.18;100985.97;5017273;28;20030;-82
2021/03/22 04:16:09;;;;;;;16.33;3.45;;;;;;;4.26;66.75;100995.72;5031183;28;20037;-82
2021/03/22 04:18:36;;;;;;;13.52;3.15;;;;;;;4.31;66.46;100994.59;5033312;28;20033;-83
2021/03/22 04:21:11;;;;;;;21.48;3.97;;;;;;;4.31;66.33;100991.97;5033393;28;20041;-82
2021/03/22 04:23:37;;;;;;;14.98;3.05;;;;;;;4.21;66.62;100989.94;5032334;28;20033;-82
2021/03/22 04:26:05;;;;;;;14.48;2.90;;;;;;;4.27;66.38;100996.59;5032289;28;20044;-82
2021/03/22 04:28:30;;;;;;;16.45;3.45;;;;;;;4.31;66.20;100997.22;5031154;28;20029;-82
2021/03/22 04:30:56;;;;;;;16.35;3.30;;;;;;;4.31;66.21;101002.44;5022842;28;20048;-82
2021/03/22 04:33:22;;;;;;;13.95;3.13;;;;;;;4.30;66.27;101001.63;5026003;28;20557;-81
2021/03/22 04:35:47;;;;;;;15.68;3.10;;;;;;;4.27;66.36;100996.59;5032955;28;20041;-82
2021/03/22 04:38:13;;;;;;;15.27;2.80;;;;;;;4.17;67.06;100993.72;5027798;28;20048;-83
2021/03/22 04:40:38;;;;;;;14.75;2.97;;;;;;;4.24;66.42;100995.00;5032010;28;20033;-83
2021/03/22 04:43:04;;;;;;;10.93;2.30;;;;;;;4.19;66.96;101006.69;5033168;28;20099;-82
2021/03/22 04:45:30;;;;;;;14.05;3.00;;;;;;;4.15;67.07;101011.31;5024805;28;20037;-83
2021/03/22 04:47:56;;;;;;;12.68;2.70;;;;;;;4.18;66.79;101007.66;5031539;28;20599;-82
2021/03/22 04:50:24;;;;;;;7.40;2.20;;;;;;;4.18;67.55;101005.03;5032777;28;20041;-82
2021/03/22 04:52:49;;;;;;;14.52;2.97;;;;;;;4.18;66.92;101008.47;5033866;28;20052;-82
2021/03/22 04:55:17;;;;;;;10.73;2.70;;;;;;;4.12;67.12;101015.88;5034986;28;20494;-83
2021/03/22 04:57:43;;;;;;;11.95;3.00;;;;;;;4.10;67.91;101009.91;5033397;28;20041;-82
2021/03/22 05:00:11;;;;;;;10.07;2.38;;;;;;;4.18;67.01;101016.34;5034789;28;20061;-82
2021/03/22 05:02:37;;;;;;;8.90;2.10;;;;;;;4.12;67.20;101006.25;5027527;28;20368;-83
2021/03/22 05:05:04;;;;;;;10.98;2.90;;;;;;;4.11;67.46;101011.59;5036678;28;20045;-81
2021/03/22 05:07:29;;;;;;;9.60;2.25;;;;;;;4.09;68.19;101013.47;5023879;28;20129;-83
2021/03/22 05:09:55;;;;;;;8.02;2.70;;;;;;;4.07;68.09;101015.34;5022997;28;20515;-82
2021/03/22 05:12:20;;;;;;;9.50;2.33;;;;;;;4.09;68.25;101021.31;5027027;28;21570;-81
2021/03/22 05:14:46;;;;;;;14.27;3.20;;;;;;;4.16;67.52;101022.59;5034008;28;20037;-83
2021/03/22 05:17:11;;;;;;;12.30;2.60;;;;;;;4.05;67.85;101020.66;5031779;28;20093;-82
2021/03/22 05:19:36;;;;;;;12.65;2.95;;;;;;;4.07;67.73;101023.19;5025926;28;20038;-83
2021/03/22 05:22:03;;;;;;;8.38;2.17;;;;;;;4.05;68.13;101023.28;5029774;28;20501;-82
2021/03/22 05:24:28;;;;;;;16.27;2.90;;;;;;;4.09;67.84;101016.09;5029830;28;20544;-83
2021/03/22 05:26:54;;;;;;;14.07;2.65;;;;;;;4.06;67.99;101022.34;5029722;28;20038;-82
2021/03/22 05:29:20;;;;;;;12.35;2.50;;;;;;;4.10;67.67;101020.38;5030840;28;20034;-82
2021/03/22 05:31:46;;;;;;;10.88;2.70;;;;;;;3.96;69.35;101021.28;5032558;28;20037;-82
2021/03/22 05:34:11;;;;;;;8.82;2.67;;;;;;;3.99;68.31;101026.31;5031684;28;20099;-82
2021/03/22 05:36:37;;;;;;;12.55;3.35;;;;;;;3.93;68.80;101030.16;5034246;28;20271;-83
2021/03/22 05:39:04;;;;;;;12.15;2.75;;;;;;;3.98;68.32;101035.94;5023862;28;20399;-83
2021/03/22 05:41:35;;;;;;;11.07;2.47;;;;;;;4.02;68.18;101033.94;5029049;28;20026;-83
2021/03/22 05:44:10;;;;;;;11.73;2.97;;;;;;;3.96;68.67;101040.41;5030931;28;20120;-82
2021/03/22 05:47:17;;;;;;;12.32;2.80;;;;;;;3.97;68.68;101041.25;5034433;28;20037;-83
2021/03/22 05:50:13;;;;;;;10.95;2.67;;;;;;;3.95;69.09;101043.94;5004275;28;20116;-81
2021/03/22 05:52:57;;;;;;;11.90;2.67;;;;;;;4.03;68.49;101041.72;5026346;28;20045;-80
2021/03/22 05:55:51;;;;;;;17.40;3.15;;;;;;;4.11;67.90;101046.44;5037461;28;20040;-81
2021/03/22 05:58:41;;;;;;;11.63;3.15;;;;;;;4.09;68.12;101055.34;5035772;28;20092;-83
2021/03/22 06:01:22;;;;;;;10.98;2.95;;;;;;;4.07;68.25;101047.56;5027235;28;20063;-82
2021/03/22 06:03:56;;;;;;;14.20;3.38;;;;;;;4.11;68.24;101043.00;5037691;28;20033;-81
2021/03/22 06:06:27;;;;;;;11.70;2.42;;;;;;;4.11;68.82;101041.22;5027083;28;20153;-81
2021/03/22 06:09:13;;;;;;;9.70;3.03;;;;;;;4.07;68.69;101044.13;5036873;28;20380;-80
2021/03/22 06:12:07;;;;;;;18.15;3.35;;;;;;;4.06;68.59;101055.53;5027128;28;20525;-81
2021/03/22 06:14:48;;;;;;;10.50;2.28;;;;;;;4.03;69.45;101049.56;5030832;28;20034;-83
2021/03/22 06:17:35;;;;;;;10.15;2.60;;;;;;;4.04;68.96;101055.63;5033733;28;20052;-81
2021/03/22 06:20:03;;;;;;;14.10;2.85;;;;;;;4.06;69.05;101059.00;5031334;28;20030;-80
2021/03/22 06:22:31;;;;;;;12.07;2.58;;;;;;;4.09;68.82;101060.56;5035280;28;20040;-83
2021/03/22 06:24:59;;;;;;;11.27;2.58;;;;;;;4.08;69.19;101064.97;5026840;28;20124;-82
2021/03/22 06:27:24;;;;;;;9.07;2.17;;;;;;;4.08;68.90;101074.63;5036691;28;20055;-81
2021/03/22 06:29:53;;;;;;;11.25;3.25;;;;;;;4.09;69.23;101077.13;5037831;28;20033;-81
2021/03/22 06:32:27;;;;;;;12.50;3.22;;;;;;;4.21;68.40;101071.09;5037452;28;20034;-81
2021/03/22 06:34:58;;;;;;;12.25;2.47;;;;;;;4.21;68.22;101070.25;5036238;28;20557;-81
2021/03/22 06:37:27;;;;;;;11.25;2.90;;;;;;;4.23;68.84;101074.47;5036966;28;20034;-82
2021/03/22 06:40:04;;;;;;;11.07;2.88;;;;;;;4.18;69.03;101075.69;5038180;28;20042;-82
2021/03/22 06:42:29;;;;;;;7.82;2.20;;;;;;;4.29;68.65;101073.25;5038923;28;20064;-80
2021/03/22 06:44:55;;;;;;;11.13;2.67;;;;;;;4.37;68.04;101076.22;5030330;28;20045;-80
2021/03/22 06:47:32;;;;;;;14.55;2.88;;;;;;;4.39;67.65;101081.34;5030886;28;20034;-80
2021/03/22 06:50:28;;;;;;;21.77;3.50;;;;;;;4.41;67.54;101082.06;5028216;28;20030;-79
2021/03/22 06:52:53;;;;;;;11.18;2.50;;;;;;;4.36;67.81;101082.41;5031519;28;20407;-79
2021/03/22 06:55:24;;;;;;;9.02;2.20;;;;;;;4.42;68.58;101073.28;5032074;28;20030;-82
2021/03/22 06:57:51;;;;;;;13.55;2.35;;;;;;;4.49;68.48;101073.75;5032998;28;20034;-83
2021/03/22 07:00:25;;;;;;;11.60;2.85;;;;;;;4.59;67.80;101075.66;5033809;28;20026;-80
2021/03/22 07:03:00;;;;;;;11.85;3.10;;;;;;;4.57;67.33;101079.31;5031338;28;20033;-81
2021/03/22 07:05:28;;;;;;;11.88;3.38;;;;;;;4.53;67.90;101075.22;5023476;28;20359;-82
2021/03/22 07:07:57;;;;;;;14.25;2.85;;;;;;;4.59;67.90;101087.91;5033017;28;20502;-81
2021/03/22 07:10:26;;;;;;;12.25;2.80;;;;;;;4.59;68.97;101073.03;5034663;28;20036;-81
2021/03/22 07:13:16;;;;;;;18.30;3.50;;;;;;;4.65;68.10;101085.75;5029666;28;20503;-82
2021/03/22 07:15:42;;;;;;;14.13;3.45;;;;;;;4.72;67.60;101078.34;5032152;28;20049;-79
2021/03/22 07:18:32;;;;;;;10.77;3.33;;;;;;;4.64;68.41;101080.59;5034750;28;20057;-80
2021/03/22 07:20:57;;;;;;;12.45;3.67;;;;;;;4.60;68.40;101079.97;5029911;28;20048;-81
2021/03/22 07:23:22;;;;;;;13.03;3.73;;;;;;;4.71;68.38;101078.41;5037096;28;20037;-80
2021/03/22 07:25:51;;;;;;;16.08;4.53;;;;;;;4.69;68.61;101081.13;5035268;28;20514;-81
2021/03/22 07:28:29;;;;;;;11.77;3.38;;;;;;;4.75;68.53;101085.97;5016447;28;20050;-82
2021/03/22 07:31:12;;;;;;;13.30;4.03;;;;;;;4.76;69.19;101087.66;5029584;28;20025;-82
2021/03/22 07:33:46;;;;;;;13.23;3.38;;;;;;;4.78;68.82;101096.25;5030860;28;20087;-81
2021/03/22 07:36:28;;;;;;;12.45;3.90;;;;;;;4.77;68.77;101105.06;5037157;28;20030;-79
2021/03/22 07:39:21;;;;;;;13.77;3.85;;;;;;;4.78;68.51;101098.88;5024637;28;20041;-79
2021/03/22 07:42:05;;;;;;;9.95;3.25;;;;;;;4.85;69.01;101101.94;5014730;28;20093;-81
2021/03/22 07:44:56;;;;;;;15.05;3.83;;;;;;;4.93;68.51;101104.03;5029291;28;20701;-81
2021/03/22 07:47:58;;;;;;;16.75;3.80;;;;;;;4.99;68.45;101111.53;5030826;28;20038;-82
2021/03/22 07:50:48;;;;;;;16.42;4.05;;;;;;;5.05;68.92;101103.22;5026579;28;20030;-81
2021/03/22 07:53:21;;;;;;;11.50;3.25;;;;;;;5.15;68.19;101112.19;5027039;28;20065;-82
2021/03/22 07:55:53;;;;;;;16.08;4.05;;;;;;;5.20;68.29;101107.47;5030755;28;20034;-82
2021/03/22 07:58:44;;;;;;;13.00;3.58;;;;;;;5.22;68.60;101120.47;5028151;28;20067;-82
2021/03/22 08:01:19;;;;;;;;;;;;;;;5.26;68.42;101124.56;5029602;28;20037;-79
2021/03/22 08:04:06;;;;;;;14.60;4.53;;;;;;;5.27;67.33;101119.22;5040583;28;19976;-78
2021/03/22 08:06:41;;;;;;;14.00;4.25;;;;;;;5.18;67.84;101125.06;5046813;28;20053;-77
2021/03/22 08:09:25;;;;;;;12.90;3.38;;;;;;;5.13;68.46;101119.31;5042857;28;20057;-79
2021/03/22 08:12:14;;;;;;;14.23;4.10;;;;;;;5.27;67.58;101119.22;5032856;28;20041;-81
2021/03/22 08:14:40;;;;;;;12.88;4.30;;;;;;;5.42;67.32;101125.22;5032613;28;20043;-81
2021/03/22 08:17:12;;;;;;;11.93;4.18;;;;;;;5.40;67.92;101126.25;5030320;28;20037;-81
2021/03/22 08:19:45;;;;;;;12.75;4.00;;;;;;;5.43;67.83;101123.41;5034144;28;20026;-79
2021/03/22 08:22:40;;;;;;;11.57;4.07;;;;;;;5.58;67.38;101122.41;5031203;28;20045;-82
2021/03/22 08:25:28;;;;;;;11.73;3.97;;;;;;;5.68;67.27;101123.44;5023141;28;20041;-80
2021/03/22 08:28:00;;;;;;;13.70;3.67;;;;;;;5.57;67.27;101122.50;5029669;28;20447;-82
2021/03/22 08:30:35;;;;;;;14.02;4.35;;;;;;;5.73;67.30;101123.13;5028284;28;20707;-80
2021/03/22 08:33:16;;;;;;;14.55;4.15;;;;;;;5.82;66.54;101125.13;5040491;28;20557;-80
2021/03/22 08:36:03;;;;;;;14.00;4.07;;;;;;;5.75;67.41;101131.72;5031131;28;20040;-82
2021/03/22 08:38:45;;;;;;;13.10;4.40;;;;;;;5.93;66.61;101130.47;5029713;28;20029;-81
2021/03/22 08:41:37;;;;;;;13.60;4.10;;;;;;;5.90;65.81;101132.44;5028422;28;20033;-80
2021/03/22 08:44:08;;;;;;;13.40;4.00;;;;;;;5.99;65.97;101133.63;5011929;28;20091;-80
2021/03/22 08:46:40;;;;;;;10.57;3.67;;;;;;;5.86;65.72;101142.31;5023232;28;20030;-81
2021/03/22 08:49:36;;;;;;;10.43;3.95;;;;;;;5.90;65.80;101140.31;5029329;28;20033;-80
2021/03/22 08:52:02;;;;;;;17.48;5.32;;;;;;;5.75;66.25;101140.44;5031074;28;20049;-82
2021/03/22 08:54:32;;;;;;;10.18;3.90;;;;;;;5.87;66.78;101145.78;5032171;28;20034;-80
2021/03/22 08:57:16;;;;;;;11.68;4.05;;;;;;;6.01;65.86;101155.38;5022260;28;20546;-82
2021/03/22 08:59:41;;;;;;;11.32;4.35;;;;;;;6.07;66.09;101149.69;5031797;28;20038;-84
2021/03/22 09:02:22;;;;;;;15.55;4.65;;;;;;;6.05;66.38;101157.66;5019229;28;20136;-79
2021/03/22 09:04:49;;;;;;;16.45;5.85;;;;;;;6.21;65.40;101160.06;5032685;28;20029;-81
2021/03/22 09:07:14;;;;;;;11.30;3.65;;;;;;;5.91;65.74;101157.75;5034449;28;20112;-82
2021/03/22 09:09:46;;;;;;;9.20;3.70;;;;;;;6.01;66.18;101163.25;5021089;28;20088;-79
2021/03/22 09:12:32;;;;;;;12.20;5.30;;;;;;;6.19;64.85;101161.09;5022091;28;20874;-84
2021/03/22 09:14:59;;;;;;;14.23;6.18;;;;;;;6.35;64.37;101159.09;5015280;28;20513;-79
2021/03/22 09:17:26;;;;;;;14.50;4.78;;;;;;;6.36;64.30;101160.75;5029272;28;20033;-81
2021/03/22 09:20:12;;;;;;;7.47;3.80;;;;;;;6.37;64.62;101158.03;5027347;28;20038;-79
2021/03/22 09:22:48;;;;;;;14.52;4.60;;;;;;;6.53;63.58;101159.53;5024023;28;20442;-80
2021/03/22 09:25:45;;;;;;;9.95;3.67;;;;;;;6.41;64.07;101165.69;5030358;28;20084;-80
2021/03/22 09:28:31;;;;;;;16.30;7.78;;;;;;;6.77;62.62;101173.56;5025564;28;20069;-79
2021/03/22 09:31:12;;;;;;;11.50;4.72;;;;;;;6.69;63.10;101167.16;5029728;28;20042;-80
2021/03/22 09:34:00;;;;;;;15.77;4.53;;;;;;;6.71;63.55;101170.53;5016092;28;20037;-80
2021/03/22 09:36:46;;;;;;;8.75;4.10;;;;;;;6.78;63.45;101175.22;5024860;28;20041;-80
2021/03/22 09:39:18;;;;;;;13.20;5.25;;;;;;;6.91;62.34;101175.19;5019519;28;20044;-79
2021/03/22 09:42:00;;;;;;;11.55;4.80;;;;;;;6.85;62.72;101180.06;5012654;28;20065;-79
2021/03/22 09:44:29;;;;;;;9.95;4.15;;;;;;;7.02;62.75;101182.28;5020845;28;20670;-79
2021/03/22 09:47:10;;;;;;;11.60;4.53;;;;;;;7.17;61.90;101182.94;5028480;28;20117;-80
2021/03/22 09:49:58;;;;;;;12.68;4.85;;;;;;;7.29;61.77;101181.19;5028644;28;20034;-80
2021/03/22 09:52:31;;;;;;;9.30;4.05;;;;;;;7.34;61.62;101182.53;5031923;28;20045;-81
2021/03/22 09:54:58;;;;;;;11.23;4.53;;;;;;;7.47;61.04;101177.19;5024934;28;20029;-79
2021/03/22 09:57:40;;;;;;;10.95;3.63;;;;;;;7.47;60.16;101185.06;5031127;28;20120;-80
2021/03/22 10:00:11;;;;;;;7.43;3.58;;;;;;;7.50;60.17;101184.00;5024467;28;20040;-81
2021/03/22 10:02:50;;;;;;;6.95;2.95;;;;;;;7.48;61.72;101186.75;5030334;28;20068;-81
2021/03/22 10:05:53;;;;;;;9.25;3.63;;;;;;;7.57;60.18;101186.06;5024553;28;20034;-81
2021/03/22 10:08:24;;;;;;;8.82;2.70;;;;;;;7.37;59.94;101184.09;5024001;28;20033;-81
2021/03/22 10:10:49;;;;;;;9.68;3.17;;;;;;;7.43;58.96;101186.25;5030968;28;20064;-80
2021/03/22 10:13:29;;;;;;;11.20;3.47;;;;;;;7.40;61.88;101191.75;5025660;28;20046;-81
2021/03/22 10:15:58;;;;;;;8.45;3.17;;;;;;;7.57;60.00;101195.75;5023028;28;20288;-79
2021/03/22 10:18:39;;;;;;;8.13;2.80;;;;;;;7.50;60.77;101195.38;5030262;28;20084;-82
2021/03/22 10:21:07;;;;;;;12.23;3.28;;;;;;;7.50;59.33;101197.16;5021798;28;20095;-79
2021/03/22 10:23:39;;;;;;;7.65;2.80;;;;;;;7.23;59.62;101193.00;5024541;28;20065;-80
2021/03/22 10:26:14;;;;;;;11.50;3.42;;;;;;;7.45;59.22;101200.97;5009087;28;20229;-80
2021/03/22 10:28:42;;;;;;;8.30;3.08;;;;;;;7.39;59.82;101200.63;5027477;28;20244;-83
2021/03/22 10:31:25;;;;;;;6.97;3.10;;;;;;;7.54;59.49;101203.88;5025791;28;20034;-82
2021/03/22 10:34:02;;;;;;;7.75;2.63;;;;;;;7.52;58.80;101198.72;5033304;28;20033;-83
2021/03/22 10:36:35;;;;;;;8.13;3.20;;;;;;;7.52;59.99;101193.47;5031863;28;20327;-83
2021/03/22 10:39:03;;;;;;;6.97;3.00;;;;;;;7.46;59.52;101191.31;5032553;28;20041;-82
2021/03/22 10:41:43;;;;;;;8.68;3.38;;;;;;;7.59;59.13;101193.84;5038268;28;20037;-80
2021/03/22 10:44:14;;;;;;;7.30;3.00;;;;;;;7.62;58.90;101194.44;5041181;28;20041;-81
2021/03/22 10:46:40;;;;;;;6.95;2.63;;;;;;;7.50;60.30;101189.28;5039433;28;20111;-82
2021/03/22 10:49:28;;;;;;;8.00;2.40;;;;;;;7.62;58.81;101188.34;5036418;28;20037;-81
2021/03/22 10:51:56;;;;;;;4.97;2.47;;;;;;;7.54;57.77;101186.28;5034640;28;20410;-82
2021/03/22 10:54:38;;;;;;;8.13;2.65;;;;;;;7.47;59.31;101189.50;5033772;28;20060;-80
2021/03/22 10:57:04;;;;;;;13.18;4.75;;;;;;;7.79;57.85;101193.16;5034172;28;20033;-81
2021/03/22 10:59:41;;;;;;;5.25;2.90;;;;;;;7.61;59.31;101192.78;5028654;28;20060;-80
2021/03/22 11:02:32;;;;;;;5.18;2.72;;;;;;;7.85;58.10;101192.69;5029479;28;20051;-81
2021/03/22 11:05:03;;;;;;;;;;;;;;;7.76;58.32;101192.56;5029381;28;20073;-80
2021/03/22 11:07:29;;;;;;;7.22;2.88;;;;;;;7.81;58.71;101193.88;5036955;28;19917;-80
2021/03/22 11:10:15;;;;;;;6.97;3.42;;;;;;;7.89;59.42;101190.69;5030161;28;20041;-81
2021/03/22 11:12:42;;;;;;;7.25;3.35;;;;;;;7.90;58.76;101196.78;5049677;28;20041;-81
2021/03/22 11:15:16;;;;;;;9.82;3.70;;;;;;;7.94;58.21;101198.22;5035202;28;20049;-81
2021/03/22 11:17:43;;;;;;;8.50;2.92;;;;;;;7.81;57.73;101200.94;5033533;28;20040;-80
2021/03/22 11:20:09;;;;;;;14.05;5.47;;;;;;;7.95;57.57;101202.53;5032865;28;20092;-81
2021/03/22 11:22:40;;;;;;;11.13;4.30;;;;;;;7.68;57.79;101194.94;5034057;28;20079;-81
2021/03/22 11:25:26;;;;;;;;;;;;;;;7.62;57.50;101194.44;5034785;28;20044;-81
2021/03/22 11:28:20;;;;;;;6.28;3.25;;;;;;;7.44;59.38;101195.84;5016522;28;21244;-80
2021/03/22 11:30:48;;;;;;;6.30;2.40;;;;;;;7.44;58.31;101193.22;5025410;28;20053;-81
2021/03/22 11:33:15;;;;;;;7.85;2.53;;;;;;;7.41;57.88;101196.06;5033241;28;20037;-80
2021/03/22 11:35:43;;;;;;;5.43;2.53;;;;;;;7.42;57.77;101195.94;5031800;28;20033;-81
2021/03/22 11:38:31;;;;;;;4.35;2.10;;;;;;;7.31;59.34;101195.91;5019140;28;20577;-81
2021/03/22 11:40:56;;;;;;;5.13;2.30;;;;;;;7.28;59.15;101184.78;5022391;28;20044;-80
2021/03/22 11:43:29;;;;;;;3.28;1.85;;;;;;;7.48;58.96;101191.16;5032961;28;20124;-80
2021/03/22 11:45:55;;;;;;;5.00;2.50;;;;;;;7.45;59.13;101192.25;5031679;28;20044;-80
2021/03/22 11:48:20;;;;;;;7.43;2.90;;;;;;;7.48;58.31;101183.28;5041319;28;20037;-80
2021/03/22 11:50:58;;;;;;;5.50;2.60;;;;;;;7.73;58.43;101196.25;5025591;28;20038;-81
2021/03/22 11:53:25;;;;;;;5.60;2.30;;;;;;;7.76;57.65;101187.28;5030496;28;20724;-80
2021/03/22 11:56:13;;;;;;;6.43;2.63;;;;;;;7.85;57.48;101184.78;5027936;28;20061;-80